Time,TemperatureF,DewpointF,PressureIn,WindDirection,WindDirectionDegrees,WindSpeedMPH,WindSpeedGustMPH,Humidity,HourlyPrecipIn,Conditions,Clouds,dailyrainin,SoftwareType,DateUTC
2013-09-27 00:00:00,58.4,54.9,30.00,NNW,339,0.0,0.0,88,0.00,,,0.00,Wunderground v.1.15,2013-09-27 04:00:00,
2013-09-27 00:05:00,58.2,55.0,30.00,NNW,338,0.0,0.0,89,0.00,,,0.00,Wunderground v.1.15,2013-09-27 04:05:00,
2013-09-27 00:10:00,57.9,55.0,30.00,NNW,339,0.0,0.0,90,0.00,,,0.00,Wunderground v.1.15,2013-09-27 04:10:00,
2013-09-27 00:15:00,57.8,54.9,30.00,NNW,339,0.0,0.0,90,0.00,,,0.00,Wunderground v.1.15,2013-09-27 04:15:00,
2013-09-27 00:20:00,57.6,54.7,30.00,NNW,338,0.0,0.0,90,0.00,,,0.00,Wunderground v.1.15,2013-09-27 04:20:00,
2013-09-27 00:25:00,57.2,54.3,30.00,NNW,339,0.0,0.0,90,0.00,,,0.00,Wunderground v.1.15,2013-09-27 04:25:00,
2013-09-27 00:30:00,57.1,54.8,30.01,NNW,338,0.0,0.0,92,0.00,,,0.00,Wunderground v.1.15,2013-09-27 04:30:00,
2013-09-27 00:35:00,57.0,55.0,30.01,NNW,338,0.0,0.0,93,0.00,,,0.00,Wunderground v.1.15,2013-09-27 04:35:00,
2013-09-27 00:40:00,57.0,55.0,30.01,NNW,338,0.0,0.0,93,0.00,,,0.00,Wunderground v.1.15,2013-09-27 04:40:00,
2013-09-27 00:45:00,57.0,55.0,30.01,NNW,339,0.0,0.0,93,0.00,,,0.00,Wunderground v.1.15,2013-09-27 04:45:00,
2013-09-27 00:50:00,57.0,55.0,30.01,NNW,338,0.0,0.0,93,0.00,,,0.00,Wunderground v.1.15,2013-09-27 04:50:00,
2013-09-27 00:55:00,56.8,54.8,30.01,NNW,339,0.0,0.0,93,0.00,,,0.00,Wunderground v.1.15,2013-09-27 04:55:00,
2013-09-27 01:00:00,56.7,54.7,30.01,NNW,338,0.0,0.0,93,0.00,,,0.00,Wunderground v.1.15,2013-09-27 05:00:00,
2013-09-27 01:10:00,56.4,54.7,30.01,NNW,338,0.0,0.0,94,0.00,,,0.00,Wunderground v.1.15,2013-09-27 05:10:00,
2013-09-27 01:15:00,56.3,54.6,30.01,NNW,339,0.0,0.0,94,0.00,,,0.00,Wunderground v.1.15,2013-09-27 05:15:00,
2013-09-27 01:20:00,56.2,54.5,30.01,NNW,339,0.0,0.0,94,0.00,,,0.00,Wunderground v.1.15,2013-09-27 05:20:00,
2013-09-27 01:25:00,56.1,54.4,30.01,NNW,339,0.0,0.0,94,0.00,,,0.00,Wunderground v.1.15,2013-09-27 05:25:00,
2013-09-27 01:30:00,55.9,54.2,30.01,NNW,338,0.0,0.0,94,0.00,,,0.00,Wunderground v.1.15,2013-09-27 05:30:00,
2013-09-27 01:35:00,55.9,54.5,30.01,NNW,338,0.0,0.0,95,0.00,,,0.00,Wunderground v.1.15,2013-09-27 05:35:00,
2013-09-27 01:40:00,55.7,54.3,30.01,NNW,339,0.0,0.0,95,0.00,,,0.00,Wunderground v.1.15,2013-09-27 05:40:00,
2013-09-27 01:50:00,55.7,54.3,30.01,East,82,0.0,0.0,95,0.00,,,0.00,Wunderground v.1.15,2013-09-27 05:50:00,
2013-09-27 01:55:00,55.5,54.1,30.01,East,82,0.0,0.0,95,0.00,,,0.00,Wunderground v.1.15,2013-09-27 05:55:00,
2013-09-27 02:00:00,55.4,54.0,30.01,East,82,0.0,0.0,95,0.00,,,0.00,Wunderground v.1.15,2013-09-27 06:00:00,
2013-09-27 02:10:00,55.2,53.8,30.02,East,82,0.0,0.0,95,0.00,,,0.00,Wunderground v.1.15,2013-09-27 06:10:00,
2013-09-27 02:15:00,55.1,53.7,30.02,East,82,0.0,0.0,95,0.00,,,0.00,Wunderground v.1.15,2013-09-27 06:15:00,
2013-09-27 02:20:00,54.9,53.5,30.02,East,82,0.0,0.0,95,0.00,,,0.00,Wunderground v.1.15,2013-09-27 06:20:00,
2013-09-27 02:30:00,54.6,53.5,30.02,East,82,0.0,0.0,96,0.00,,,0.00,Wunderground v.1.15,2013-09-27 06:30:00,
2013-09-27 02:35:00,54.8,54.0,30.02,East,82,0.0,0.0,97,0.00,,,0.00,Wunderground v.1.15,2013-09-27 06:35:00,
2013-09-27 02:40:00,54.9,53.8,30.02,East,82,0.0,0.0,96,0.00,,,0.00,Wunderground v.1.15,2013-09-27 06:40:00,
2013-09-27 02:45:00,55.1,54.3,30.02,East,82,0.0,0.0,97,0.00,,,0.00,Wunderground v.1.15,2013-09-27 06:45:00,
2013-09-27 02:50:00,55.2,54.4,30.02,East,82,0.0,0.0,97,0.00,,,0.00,Wunderground v.1.15,2013-09-27 06:50:00,
2013-09-27 02:55:00,55.2,54.4,30.02,East,82,0.0,0.0,97,0.00,,,0.00,Wunderground v.1.15,2013-09-27 06:55:00,
2013-09-27 03:00:00,55.3,54.5,30.02,East,82,0.0,0.0,97,0.00,,,0.00,Wunderground v.1.15,2013-09-27 07:00:00,
2013-09-27 03:10:00,55.1,54.0,30.02,East,82,0.0,0.0,96,0.00,,,0.00,Wunderground v.1.15,2013-09-27 07:10:00,
2013-09-27 03:15:00,54.9,53.8,30.02,East,82,0.0,0.0,96,0.00,,,0.00,Wunderground v.1.15,2013-09-27 07:15:00,
2013-09-27 03:20:00,54.6,53.5,30.02,East,82,0.0,0.0,96,0.00,,,0.00,Wunderground v.1.15,2013-09-27 07:20:00,
2013-09-27 03:25:00,54.5,53.4,30.02,East,82,0.0,0.0,96,0.00,,,0.00,Wunderground v.1.15,2013-09-27 07:25:00,
2013-09-27 03:30:00,54.6,53.8,30.02,East,82,0.0,0.0,97,0.00,,,0.00,Wunderground v.1.15,2013-09-27 07:30:00,
2013-09-27 03:35:00,54.6,53.8,30.02,East,82,0.0,0.0,97,0.00,,,0.00,Wunderground v.1.15,2013-09-27 07:35:00,
2013-09-27 03:40:00,54.5,53.7,30.02,East,82,0.0,0.0,97,0.00,,,0.00,Wunderground v.1.15,2013-09-27 07:40:00,
2013-09-27 03:45:00,54.5,53.7,30.02,East,82,0.0,0.0,97,0.00,,,0.00,Wunderground v.1.15,2013-09-27 07:45:00,
2013-09-27 03:50:00,54.5,53.7,30.02,East,82,0.0,0.0,97,0.00,,,0.00,Wunderground v.1.15,2013-09-27 07:50:00,
2013-09-27 04:00:00,54.4,53.6,30.02,East,82,0.0,0.0,97,0.00,,,0.00,Wunderground v.1.15,2013-09-27 08:00:00,
2013-09-27 04:10:00,54.3,53.5,30.02,East,82,0.0,0.0,97,0.00,,,0.00,Wunderground v.1.15,2013-09-27 08:10:00,
2013-09-27 04:15:00,54.2,53.4,30.02,East,82,0.0,0.0,97,0.00,,,0.00,Wunderground v.1.15,2013-09-27 08:15:00,
2013-09-27 04:20:00,54.2,53.4,30.02,East,82,0.0,0.0,97,0.00,,,0.00,Wunderground v.1.15,2013-09-27 08:20:00,
2013-09-27 04:25:00,54.1,53.3,30.02,East,82,0.0,0.0,97,0.00,,,0.00,Wunderground v.1.15,2013-09-27 08:25:00,
2013-09-27 04:30:00,54.1,53.3,30.02,East,82,0.0,0.0,97,0.00,,,0.00,Wunderground v.1.15,2013-09-27 08:30:00,
2013-09-27 04:35:00,54.0,53.2,30.02,East,82,0.0,0.0,97,0.00,,,0.00,Wunderground v.1.15,2013-09-27 08:35:00,
2013-09-27 04:40:00,54.0,53.2,30.02,East,82,0.0,0.0,97,0.00,,,0.00,Wunderground v.1.15,2013-09-27 08:40:00,
2013-09-27 04:45:00,53.8,53.0,30.02,East,82,0.0,0.0,97,0.00,,,0.00,Wunderground v.1.15,2013-09-27 08:45:00,
2013-09-27 04:50:00,53.7,52.9,30.02,East,82,0.0,0.0,97,0.00,,,0.00,Wunderground v.1.15,2013-09-27 08:50:00,
2013-09-27 04:55:00,53.7,52.9,30.03,East,82,0.0,0.0,97,0.00,,,0.00,Wunderground v.1.15,2013-09-27 08:55:00,
2013-09-27 05:00:00,53.6,52.8,30.03,East,82,0.0,0.0,97,0.00,,,0.00,Wunderground v.1.15,2013-09-27 09:00:00,
2013-09-27 05:10:00,53.5,52.7,30.03,East,82,0.0,0.0,97,0.00,,,0.00,Wunderground v.1.15,2013-09-27 09:10:00,
2013-09-27 05:15:00,53.4,52.6,30.03,East,82,0.0,0.0,97,0.00,,,0.00,Wunderground v.1.15,2013-09-27 09:15:00,
2013-09-27 05:20:00,53.5,52.7,30.03,East,82,0.0,0.0,97,0.00,,,0.00,Wunderground v.1.15,2013-09-27 09:20:00,
2013-09-27 05:25:00,53.4,52.6,30.03,East,82,0.0,0.0,97,0.00,,,0.00,Wunderground v.1.15,2013-09-27 09:25:00,
2013-09-27 05:30:00,53.4,52.6,30.03,East,82,0.0,0.0,97,0.00,,,0.00,Wunderground v.1.15,2013-09-27 09:30:00,
2013-09-27 05:35:00,53.4,52.6,30.03,East,82,0.0,0.0,97,0.00,,,0.00,Wunderground v.1.15,2013-09-27 09:35:00,
2013-09-27 05:45:00,53.2,52.4,30.04,East,82,0.0,0.0,97,0.00,,,0.00,Wunderground v.1.15,2013-09-27 09:45:00,
2013-09-27 05:50:00,53.2,52.4,30.04,East,82,0.0,0.0,97,0.00,,,0.00,Wunderground v.1.15,2013-09-27 09:50:00,
2013-09-27 05:55:00,53.1,52.3,30.04,East,82,0.0,0.0,97,0.00,,,0.00,Wunderground v.1.15,2013-09-27 09:55:00,
2013-09-27 06:00:00,53.0,52.2,30.04,East,82,0.0,0.0,97,0.00,,,0.00,Wunderground v.1.15,2013-09-27 10:00:00,
2013-09-27 06:10:00,52.9,52.1,30.05,NW,317,0.0,0.0,97,0.00,,,0.00,Wunderground v.1.15,2013-09-27 10:10:00,
2013-09-27 06:15:00,53.0,52.5,30.05,WNW,295,0.0,0.0,98,0.00,,,0.00,Wunderground v.1.15,2013-09-27 10:15:00,
2013-09-27 06:20:00,52.9,52.4,30.05,WNW,295,0.0,0.0,98,0.00,,,0.00,Wunderground v.1.15,2013-09-27 10:20:00,
2013-09-27 06:30:00,52.9,52.4,30.05,WNW,295,0.0,0.0,98,0.00,,,0.00,Wunderground v.1.15,2013-09-27 10:30:00,
2013-09-27 06:35:00,52.9,52.4,30.05,WNW,295,0.0,0.0,98,0.00,,,0.00,Wunderground v.1.15,2013-09-27 10:35:00,
2013-09-27 06:40:00,52.9,52.4,30.06,WNW,295,0.0,0.0,98,0.00,,,0.00,Wunderground v.1.15,2013-09-27 10:40:00,
2013-09-27 06:45:00,52.7,51.9,30.06,WNW,295,0.0,0.0,97,0.00,,,0.00,Wunderground v.1.15,2013-09-27 10:45:00,
2013-09-27 06:50:00,52.6,52.1,30.06,WNW,295,0.0,0.0,98,0.00,,,0.00,Wunderground v.1.15,2013-09-27 10:50:00,
2013-09-27 06:55:00,52.8,52.3,30.06,WNW,295,0.0,0.0,98,0.00,,,0.00,Wunderground v.1.15,2013-09-27 10:55:00,
2013-09-27 07:00:00,52.8,52.3,30.06,WNW,295,0.0,0.0,98,0.00,,,0.00,Wunderground v.1.15,2013-09-27 11:00:00,
2013-09-27 07:10:00,52.6,52.1,30.07,WNW,295,0.0,0.0,98,0.00,,,0.00,Wunderground v.1.15,2013-09-27 11:10:00,
2013-09-27 07:15:00,52.6,52.1,30.07,WNW,295,0.0,0.0,98,0.00,,,0.00,Wunderground v.1.15,2013-09-27 11:15:00,
2013-09-27 07:25:00,52.7,52.2,30.07,WNW,295,0.0,0.0,98,0.00,,,0.00,Wunderground v.1.15,2013-09-27 11:25:00,
2013-09-27 07:30:00,52.7,52.2,30.07,WNW,295,0.0,0.0,98,0.00,,,0.00,Wunderground v.1.15,2013-09-27 11:30:00,
2013-09-27 07:35:00,52.7,52.2,30.07,WNW,295,0.0,0.0,98,0.00,,,0.00,Wunderground v.1.15,2013-09-27 11:35:00,
2013-09-27 07:45:00,52.8,52.3,30.08,WNW,295,0.0,0.0,98,0.00,,,0.00,Wunderground v.1.15,2013-09-27 11:45:00,
2013-09-27 07:50:00,52.8,52.3,30.08,WNW,295,0.0,0.0,98,0.00,,,0.00,Wunderground v.1.15,2013-09-27 11:50:00,
2013-09-27 07:55:00,53.0,52.5,30.08,WNW,295,0.0,0.0,98,0.00,,,0.00,Wunderground v.1.15,2013-09-27 11:55:00,
2013-09-27 08:00:00,53.1,52.6,30.08,WNW,295,0.0,0.0,98,0.00,,,0.00,Wunderground v.1.15,2013-09-27 12:00:00,
2013-09-27 08:10:00,53.1,52.6,30.08,WNW,295,0.0,0.0,98,0.00,,,0.00,Wunderground v.1.15,2013-09-27 12:10:00,
2013-09-27 08:15:00,53.0,52.5,30.08,WNW,295,0.0,0.0,98,0.00,,,0.00,Wunderground v.1.15,2013-09-27 12:15:00,
2013-09-27 08:20:00,53.1,52.6,30.09,WNW,295,0.0,0.0,98,0.00,,,0.00,Wunderground v.1.15,2013-09-27 12:20:00,
2013-09-27 08:25:00,53.1,52.6,30.09,WNW,295,0.0,0.0,98,0.00,,,0.00,Wunderground v.1.15,2013-09-27 12:25:00,
2013-09-27 08:35:00,53.3,52.8,30.09,WNW,295,0.0,0.0,98,0.00,,,0.00,Wunderground v.1.15,2013-09-27 12:35:00,
2013-09-27 08:40:00,53.4,52.8,30.09,WNW,295,0.0,0.0,98,0.00,,,0.00,Wunderground v.1.15,2013-09-27 12:40:00,
2013-09-27 08:45:00,53.6,53.0,30.09,WNW,295,0.0,0.0,98,0.00,,,0.00,Wunderground v.1.15,2013-09-27 12:45:00,
2013-09-27 08:50:00,53.7,53.1,30.09,WNW,295,0.0,0.0,98,0.00,,,0.00,Wunderground v.1.15,2013-09-27 12:50:00,
2013-09-27 08:55:00,53.8,53.2,30.09,WNW,295,0.0,0.0,98,0.00,,,0.00,Wunderground v.1.15,2013-09-27 12:55:00,
2013-09-27 09:00:00,54.1,53.5,30.10,WNW,295,0.0,0.0,98,0.00,,,0.00,Wunderground v.1.15,2013-09-27 13:00:00,
2013-09-27 09:10:00,54.7,54.1,30.10,WNW,295,0.0,0.0,98,0.00,,,0.00,Wunderground v.1.15,2013-09-27 13:10:00,
2013-09-27 09:15:00,55.1,54.5,30.10,WNW,295,0.0,0.0,98,0.00,,,0.00,Wunderground v.1.15,2013-09-27 13:15:00,
2013-09-27 09:20:00,55.4,54.8,30.10,WNW,295,0.0,0.0,98,0.00,,,0.00,Wunderground v.1.15,2013-09-27 13:20:00,
2013-09-27 09:25:00,55.8,55.2,30.10,WNW,295,0.0,0.0,98,0.00,,,0.00,Wunderground v.1.15,2013-09-27 13:25:00,
2013-09-27 09:35:00,56.7,55.9,30.10,WNW,295,0.0,0.0,97,0.00,,,0.00,Wunderground v.1.15,2013-09-27 13:35:00,
2013-09-27 09:40:00,57.2,56.4,30.10,WNW,295,0.0,0.0,97,0.00,,,0.00,Wunderground v.1.15,2013-09-27 13:40:00,
2013-09-27 09:45:00,57.6,56.8,30.10,WNW,295,0.0,0.0,97,0.00,,,0.00,Wunderground v.1.15,2013-09-27 13:45:00,
2013-09-27 09:50:00,58.3,57.5,30.10,WNW,295,0.0,0.0,97,0.00,,,0.00,Wunderground v.1.15,2013-09-27 13:50:00,
2013-09-27 09:55:00,59.1,58.2,30.10,WNW,295,0.0,0.0,97,0.00,,,0.00,Wunderground v.1.15,2013-09-27 13:55:00,
2013-09-27 10:00:00,59.7,58.6,30.11,ENE,73,0.0,1.0,96,0.00,,,0.00,Wunderground v.1.15,2013-09-27 14:00:00,
2013-09-27 10:10:00,61.9,59.9,30.11,SSW,210,0.0,0.0,93,0.00,,,0.00,Wunderground v.1.15,2013-09-27 14:10:00,
2013-09-27 10:15:00,63.0,60.3,30.11,SE,134,0.0,0.0,91,0.00,,,0.00,Wunderground v.1.15,2013-09-27 14:15:00,
2013-09-27 10:20:00,63.9,60.6,30.11,South,169,0.0,0.0,89,0.00,,,0.00,Wunderground v.1.15,2013-09-27 14:20:00,
2013-09-27 10:30:00,65.6,61.0,30.11,WSW,258,0.0,0.0,85,0.00,,,0.00,Wunderground v.1.15,2013-09-27 14:30:00,
2013-09-27 10:35:00,66.5,61.5,30.11,East,101,0.0,0.0,84,0.00,,,0.00,Wunderground v.1.15,2013-09-27 14:35:00,
2013-09-27 10:40:00,67.2,61.5,30.11,NNW,327,0.0,1.0,82,0.00,,,0.00,Wunderground v.1.15,2013-09-27 14:40:00,
2013-09-27 10:45:00,67.7,62.3,30.11,ESE,103,0.0,1.0,83,0.00,,,0.00,Wunderground v.1.15,2013-09-27 14:45:00,
2013-09-27 10:50:00,68.3,62.2,30.11,NNW,329,0.0,1.0,81,0.00,,,0.00,Wunderground v.1.15,2013-09-27 14:50:00,
2013-09-27 10:55:00,69.0,62.6,30.11,NNE,26,0.0,1.0,80,0.00,,,0.00,Wunderground v.1.15,2013-09-27 14:55:00,
2013-09-27 11:00:00,69.6,62.4,30.11,NE,53,0.0,0.0,78,0.00,,,0.00,Wunderground v.1.15,2013-09-27 15:00:00,
2013-09-27 11:10:00,70.7,62.0,30.11,North,6,0.0,0.0,74,0.00,,,0.00,Wunderground v.1.15,2013-09-27 15:10:00,
2013-09-27 11:15:00,71.3,62.2,30.11,NW,323,1.0,1.0,73,0.00,,,0.00,Wunderground v.1.15,2013-09-27 15:15:00,
2013-09-27 11:25:00,72.1,62.6,30.11,NW,317,1.0,1.0,72,0.00,,,0.00,Wunderground v.1.15,2013-09-27 15:25:00,
2013-09-27 11:30:00,72.5,63.0,30.11,West,260,1.0,1.0,72,0.00,,,0.00,Wunderground v.1.15,2013-09-27 15:30:00,
2013-09-27 11:35:00,72.8,62.4,30.11,ESE,116,0.0,1.0,70,0.00,,,0.00,Wunderground v.1.15,2013-09-27 15:35:00,
2013-09-27 11:40:00,73.3,62.9,30.11,ESE,117,1.0,2.0,70,0.00,,,0.00,Wunderground v.1.15,2013-09-27 15:40:00,
2013-09-27 11:45:00,73.5,61.4,30.11,SW,228,1.0,2.0,66,0.00,,,0.00,Wunderground v.1.15,2013-09-27 15:45:00,
2013-09-27 11:50:00,73.8,61.7,30.11,West,277,1.0,2.0,66,0.00,,,0.00,Wunderground v.1.15,2013-09-27 15:50:00,
2013-09-27 11:55:00,74.6,61.6,30.11,NNW,332,1.0,2.0,64,0.00,,,0.00,Wunderground v.1.15,2013-09-27 15:55:00,
2013-09-27 12:00:00,74.9,61.0,30.11,ESE,119,1.0,1.0,62,0.00,,,0.00,Wunderground v.1.15,2013-09-27 16:00:00,
2013-09-27 12:10:00,75.5,61.1,30.10,NNE,30,1.0,1.0,61,0.00,,,0.00,Wunderground v.1.15,2013-09-27 16:10:00,
2013-09-27 12:15:00,75.7,60.4,30.10,SE,143,1.0,1.0,59,0.00,,,0.00,Wunderground v.1.15,2013-09-27 16:15:00,
2013-09-27 12:20:00,75.9,60.5,30.10,West,266,1.0,1.0,59,0.00,,,0.00,Wunderground v.1.15,2013-09-27 16:20:00,
2013-09-27 12:25:00,76.5,60.6,30.10,SW,232,1.0,3.0,58,0.00,,,0.00,Wunderground v.1.15,2013-09-27 16:25:00,
2013-09-27 12:30:00,76.8,59.9,30.10,WNW,300,1.0,2.0,56,0.00,,,0.00,Wunderground v.1.15,2013-09-27 16:30:00,
2013-09-27 12:35:00,76.8,60.4,30.10,SW,214,1.0,2.0,57,0.00,,,0.00,Wunderground v.1.15,2013-09-27 16:35:00,
2013-09-27 12:40:00,76.9,59.5,30.10,SE,126,1.0,1.0,55,0.00,,,0.00,Wunderground v.1.15,2013-09-27 16:40:00,
2013-09-27 12:45:00,77.1,59.7,30.09,SE,126,1.0,1.0,55,0.00,,,0.00,Wunderground v.1.15,2013-09-27 16:45:00,
2013-09-27 12:50:00,77.1,58.6,30.09,NNW,340,1.0,1.0,53,0.00,,,0.00,Wunderground v.1.15,2013-09-27 16:50:00,
2013-09-27 13:00:00,77.5,58.5,30.09,SSW,204,1.0,2.0,52,0.00,,,0.00,Wunderground v.1.15,2013-09-27 17:00:00,
2013-09-27 13:10:00,78.5,59.4,30.09,WSW,253,1.0,3.0,52,0.00,,,0.00,Wunderground v.1.15,2013-09-27 17:10:00,
2013-09-27 13:15:00,78.9,58.1,30.09,NW,307,1.0,3.0,49,0.00,,,0.00,Wunderground v.1.15,2013-09-27 17:15:00,
2013-09-27 13:25:00,78.9,56.4,30.08,NW,321,2.0,2.0,46,0.00,,,0.00,Wunderground v.1.15,2013-09-27 17:25:00,
2013-09-27 13:30:00,79.4,55.6,30.08,WSW,249,1.0,1.0,44,0.00,,,0.00,Wunderground v.1.15,2013-09-27 17:30:00,
2013-09-27 13:35:00,79.9,56.7,30.08,SSW,200,1.0,1.0,45,0.00,,,0.00,Wunderground v.1.15,2013-09-27 17:35:00,
2013-09-27 13:40:00,79.9,57.3,30.08,NNW,333,1.0,2.0,46,0.00,,,0.00,Wunderground v.1.15,2013-09-27 17:40:00,
2013-09-27 13:45:00,80.0,57.4,30.08,SE,125,2.0,2.0,46,0.00,,,0.00,Wunderground v.1.15,2013-09-27 17:45:00,
2013-09-27 13:50:00,80.3,55.8,30.07,WSW,243,2.0,2.0,43,0.00,,,0.00,Wunderground v.1.15,2013-09-27 17:50:00,
2013-09-27 13:55:00,80.3,56.4,30.07,WNW,299,2.0,2.0,44,0.00,,,0.00,Wunderground v.1.15,2013-09-27 17:55:00,
2013-09-27 14:00:00,80.6,57.3,30.07,WSW,238,2.0,2.0,45,0.00,,,0.00,Wunderground v.1.15,2013-09-27 18:00:00,
2013-09-27 14:10:00,81.2,58.5,30.06,SE,125,2.0,2.0,46,0.00,,,0.00,Wunderground v.1.15,2013-09-27 18:10:00,
2013-09-27 14:15:00,81.2,56.6,30.06,SE,127,2.0,2.0,43,0.00,,,0.00,Wunderground v.1.15,2013-09-27 18:15:00,
2013-09-27 14:20:00,81.4,56.8,30.06,WNW,300,2.0,2.0,43,0.00,,,0.00,Wunderground v.1.15,2013-09-27 18:20:00,
2013-09-27 14:25:00,80.9,56.3,30.06,NW,309,2.0,2.0,43,0.00,,,0.00,Wunderground v.1.15,2013-09-27 18:25:00,
2013-09-27 14:30:00,81.0,57.7,30.06,West,280,2.0,2.0,45,0.00,,,0.00,Wunderground v.1.15,2013-09-27 18:30:00,
2013-09-27 14:40:00,81.5,56.8,30.05,East,85,1.0,4.0,43,0.00,,,0.00,Wunderground v.1.15,2013-09-27 18:40:00,
2013-09-27 14:50:00,82.1,56.1,30.05,West,281,2.0,3.0,41,0.00,,,0.00,Wunderground v.1.15,2013-09-27 18:50:00,
2013-09-27 14:55:00,81.7,54.3,30.05,NW,309,2.0,3.0,39,0.00,,,0.00,Wunderground v.1.15,2013-09-27 18:55:00,
2013-09-27 15:00:00,81.7,55.0,30.04,SSW,205,2.0,2.0,40,0.00,,,0.00,Wunderground v.1.15,2013-09-27 19:00:00,
2013-09-27 15:10:00,81.8,53.7,30.04,SE,129,2.0,2.0,38,0.00,,,0.00,Wunderground v.1.15,2013-09-27 19:10:00,
2013-09-27 15:15:00,82.0,56.6,30.04,NNW,338,1.0,3.0,42,0.00,,,0.00,Wunderground v.1.15,2013-09-27 19:15:00,
2013-09-27 15:25:00,82.7,55.2,30.04,SE,145,1.0,2.0,39,0.00,,,0.00,Wunderground v.1.15,2013-09-27 19:25:00,
2013-09-27 15:30:00,82.6,55.1,30.04,SSE,156,1.0,1.0,39,0.00,,,0.00,Wunderground v.1.15,2013-09-27 19:30:00,
2013-09-27 15:35:00,82.8,56.7,30.04,ESE,103,2.0,4.0,41,0.00,,,0.00,Wunderground v.1.15,2013-09-27 19:35:00,
2013-09-27 15:40:00,82.8,55.3,30.03,NW,321,1.0,2.0,39,0.00,,,0.00,Wunderground v.1.15,2013-09-27 19:40:00,
2013-09-27 15:45:00,82.5,56.4,30.03,WSW,249,1.0,2.0,41,0.00,,,0.00,Wunderground v.1.15,2013-09-27 19:45:00,
2013-09-27 15:50:00,82.5,55.0,30.03,SW,228,1.0,1.0,39,0.00,,,0.00,Wunderground v.1.15,2013-09-27 19:50:00,
2013-09-27 15:55:00,82.5,57.1,30.03,WNW,301,1.0,1.0,42,0.00,,,0.00,Wunderground v.1.15,2013-09-27 19:55:00,
2013-09-27 16:00:00,82.9,56.1,30.03,SE,139,1.0,2.0,40,0.00,,,0.00,Wunderground v.1.15,2013-09-27 20:00:00,
2013-09-27 16:10:00,82.6,55.8,30.02,SW,236,2.0,2.0,40,0.00,,,0.00,Wunderground v.1.15,2013-09-27 20:10:00,
2013-09-27 16:15:00,82.5,55.7,30.02,NW,322,1.0,2.0,40,0.00,,,0.00,Wunderground v.1.15,2013-09-27 20:15:00,
2013-09-27 16:25:00,82.4,55.7,30.02,South,177,2.0,2.0,40,0.00,,,0.00,Wunderground v.1.15,2013-09-27 20:25:00,
2013-09-27 16:30:00,82.5,57.1,30.02,SE,146,1.0,3.0,42,0.00,,,0.00,Wunderground v.1.15,2013-09-27 20:30:00,
2013-09-27 16:35:00,82.4,56.3,30.02,North,353,1.0,3.0,41,0.00,,,0.00,Wunderground v.1.15,2013-09-27 20:35:00,
2013-09-27 16:40:00,82.3,56.2,30.02,SE,131,2.0,2.0,41,0.00,,,0.00,Wunderground v.1.15,2013-09-27 20:40:00,
2013-09-27 16:45:00,82.2,55.5,30.02,SSE,160,2.0,2.0,40,0.00,,,0.00,Wunderground v.1.15,2013-09-27 20:45:00,
2013-09-27 16:50:00,82.3,56.9,30.01,East,99,2.0,2.0,42,0.00,,,0.00,Wunderground v.1.15,2013-09-27 20:50:00,
2013-09-27 16:55:00,82.4,57.7,30.02,SSE,157,1.0,2.0,43,0.00,,,0.00,Wunderground v.1.15,2013-09-27 20:55:00,
2013-09-27 17:00:00,82.3,56.2,30.01,ESE,115,1.0,1.0,41,0.00,,,0.00,Wunderground v.1.15,2013-09-27 21:00:00,
2013-09-27 17:10:00,82.2,57.5,30.01,North,354,1.0,1.0,43,0.00,,,0.00,Wunderground v.1.15,2013-09-27 21:10:00,
2013-09-27 17:15:00,82.2,56.2,30.01,East,83,1.0,1.0,41,0.00,,,0.00,Wunderground v.1.15,2013-09-27 21:15:00,
2013-09-27 17:20:00,81.8,55.8,30.01,ESE,117,1.0,2.0,41,0.00,,,0.00,Wunderground v.1.15,2013-09-27 21:20:00,
2013-09-27 17:30:00,81.7,56.4,30.01,SSW,211,0.0,0.0,42,0.00,,,0.00,Wunderground v.1.15,2013-09-27 21:30:00,
2013-09-27 17:35:00,81.8,57.1,30.01,NW,314,0.0,0.0,43,0.00,,,0.00,Wunderground v.1.15,2013-09-27 21:35:00,
2013-09-27 17:40:00,81.6,57.6,30.01,WSW,245,1.0,1.0,44,0.00,,,0.00,Wunderground v.1.15,2013-09-27 21:40:00,
2013-09-27 17:45:00,81.5,57.5,30.01,SW,226,1.0,1.0,44,0.00,,,0.00,Wunderground v.1.15,2013-09-27 21:45:00,
2013-09-27 17:50:00,81.3,56.0,30.01,East,91,0.0,0.0,42,0.00,,,0.00,Wunderground v.1.15,2013-09-27 21:50:00,
2013-09-27 17:55:00,80.9,56.3,30.01,SSE,150,1.0,1.0,43,0.00,,,0.00,Wunderground v.1.15,2013-09-27 21:55:00,
2013-09-27 18:00:00,80.7,56.8,30.01,SSW,200,0.0,0.0,44,0.00,,,0.00,Wunderground v.1.15,2013-09-27 22:00:00,
2013-09-27 18:10:00,80.5,56.6,30.01,ESE,120,0.0,0.0,44,0.00,,,0.00,Wunderground v.1.15,2013-09-27 22:10:00,
2013-09-27 18:15:00,80.2,56.9,30.01,NW,314,0.0,0.0,45,0.00,,,0.00,Wunderground v.1.15,2013-09-27 22:15:00,
2013-09-27 18:20:00,79.7,57.1,30.01,ESE,109,0.0,2.0,46,0.00,,,0.00,Wunderground v.1.15,2013-09-27 22:20:00,
2013-09-27 18:25:00,79.1,56.5,30.02,East,100,0.0,2.0,46,0.00,,,0.00,Wunderground v.1.15,2013-09-27 22:25:00,
2013-09-27 18:30:00,78.3,55.8,30.02,ESE,112,0.0,1.0,46,0.00,,,0.00,Wunderground v.1.15,2013-09-27 22:30:00,
2013-09-27 18:35:00,77.8,56.0,30.02,ESE,111,0.0,1.0,47,0.00,,,0.00,Wunderground v.1.15,2013-09-27 22:35:00,
2013-09-27 18:40:00,77.2,56.0,30.02,SE,131,0.0,0.0,48,0.00,,,0.00,Wunderground v.1.15,2013-09-27 22:40:00,
2013-09-27 18:45:00,76.7,56.7,30.02,NE,44,0.0,1.0,50,0.00,,,0.00,Wunderground v.1.15,2013-09-27 22:45:00,
2013-09-27 18:50:00,76.2,56.7,30.02,WSW,255,0.0,0.0,51,0.00,,,0.00,Wunderground v.1.15,2013-09-27 22:50:00,
2013-09-27 18:55:00,75.8,56.9,30.02,ENE,69,0.0,0.0,52,0.00,,,0.00,Wunderground v.1.15,2013-09-27 22:55:00,
2013-09-27 19:00:00,75.2,56.9,30.02,ENE,70,0.0,0.0,53,0.00,,,0.00,Wunderground v.1.15,2013-09-27 23:00:00,
2013-09-27 19:10:00,74.4,56.7,30.02,ENE,70,0.0,0.0,54,0.00,,,0.00,Wunderground v.1.15,2013-09-27 23:10:00,
2013-09-27 19:15:00,73.9,56.2,30.02,ENE,69,0.0,0.0,54,0.00,,,0.00,Wunderground v.1.15,2013-09-27 23:15:00,
2013-09-27 19:20:00,73.5,56.3,30.02,ENE,70,0.0,0.0,55,0.00,,,0.00,Wunderground v.1.15,2013-09-27 23:20:00,
2013-09-27 19:25:00,73.0,55.9,30.02,ENE,70,0.0,0.0,55,0.00,,,0.00,Wunderground v.1.15,2013-09-27 23:25:00,
2013-09-27 19:30:00,72.6,55.5,30.02,ENE,70,0.0,0.0,55,0.00,,,0.00,Wunderground v.1.15,2013-09-27 23:30:00,
2013-09-27 19:40:00,72.0,55.4,30.02,ENE,70,0.0,0.0,56,0.00,,,0.00,Wunderground v.1.15,2013-09-27 23:40:00,
2013-09-27 19:45:00,71.6,55.6,30.02,ENE,69,0.0,0.0,57,0.00,,,0.00,Wunderground v.1.15,2013-09-27 23:45:00,
2013-09-27 19:50:00,71.3,55.3,30.02,ENE,70,0.0,0.0,57,0.00,,,0.00,Wunderground v.1.15,2013-09-27 23:50:00,
2013-09-27 19:55:00,71.0,55.5,30.02,ENE,70,0.0,0.0,58,0.00,,,0.00,Wunderground v.1.15,2013-09-27 23:55:00,
2013-09-27 20:00:00,70.7,55.2,30.02,ENE,70,0.0,0.0,58,0.00,,,0.00,Wunderground v.1.15,2013-09-28 00:00:00,
2013-09-27 20:10:00,70.0,55.9,30.02,ENE,69,0.0,0.0,61,0.00,,,0.00,Wunderground v.1.15,2013-09-28 00:10:00,
2013-09-27 20:15:00,69.6,55.6,30.02,ENE,70,0.0,0.0,61,0.00,,,0.00,Wunderground v.1.15,2013-09-28 00:15:00,
2013-09-27 20:20:00,69.4,55.8,30.02,ENE,70,0.0,0.0,62,0.00,,,0.00,Wunderground v.1.15,2013-09-28 00:20:00,
2013-09-27 20:25:00,69.2,55.6,30.02,ENE,70,0.0,0.0,62,0.00,,,0.00,Wunderground v.1.15,2013-09-28 00:25:00,
2013-09-27 20:30:00,69.1,56.0,30.02,ENE,70,0.0,0.0,63,0.00,,,0.00,Wunderground v.1.15,2013-09-28 00:30:00,
2013-09-27 20:35:00,69.0,55.4,30.02,ENE,69,0.0,0.0,62,0.00,,,0.00,Wunderground v.1.15,2013-09-28 00:35:00,
2013-09-27 20:40:00,68.9,55.8,30.02,ENE,69,0.0,0.0,63,0.00,,,0.00,Wunderground v.1.15,2013-09-28 00:40:00,
2013-09-27 20:50:00,68.8,55.7,30.03,ENE,69,0.0,0.0,63,0.00,,,0.00,Wunderground v.1.15,2013-09-28 00:50:00,
2013-09-27 20:55:00,68.7,55.6,30.03,ENE,70,0.0,0.0,63,0.00,,,0.00,Wunderground v.1.15,2013-09-28 00:55:00,
2013-09-27 21:01:00,68.8,55.7,30.03,ENE,69,0.0,0.0,63,0.00,,,0.00,Wunderground v.1.15,2013-09-28 01:01:00,
2013-09-27 21:10:00,68.7,56.5,30.03,ENE,70,0.0,0.0,65,0.00,,,0.00,Wunderground v.1.15,2013-09-28 01:10:00,
2013-09-27 21:15:00,68.2,57.2,30.04,ENE,70,0.0,0.0,68,0.00,,,0.00,Wunderground v.1.15,2013-09-28 01:15:00,
2013-09-27 21:20:00,67.8,56.9,30.03,ENE,70,0.0,0.0,68,0.00,,,0.00,Wunderground v.1.15,2013-09-28 01:20:00,
2013-09-27 21:25:00,67.4,58.1,30.04,ENE,69,0.0,0.0,72,0.00,,,0.00,Wunderground v.1.15,2013-09-28 01:25:00,
2013-09-27 21:30:00,67.2,56.7,30.04,ENE,70,0.0,0.0,69,0.00,,,0.00,Wunderground v.1.15,2013-09-28 01:30:00,
2013-09-27 21:35:00,67.2,56.3,30.04,ENE,69,0.0,0.0,68,0.00,,,0.00,Wunderground v.1.15,2013-09-28 01:35:00,
2013-09-27 21:40:00,67.1,57.0,30.04,ENE,68,0.0,0.0,70,0.00,,,0.00,Wunderground v.1.15,2013-09-28 01:40:00,
2013-09-27 21:45:00,66.8,56.7,30.05,ENE,68,0.0,0.0,70,0.00,,,0.00,Wunderground v.1.15,2013-09-28 01:45:00,
2013-09-27 21:50:00,66.7,56.2,30.05,ENE,68,0.0,0.0,69,0.00,,,0.00,Wunderground v.1.15,2013-09-28 01:50:00,
2013-09-27 21:55:00,66.7,56.6,30.05,ENE,68,0.0,0.0,70,0.00,,,0.00,Wunderground v.1.15,2013-09-28 01:55:00,
2013-09-27 22:00:00,66.7,56.6,30.05,ENE,68,0.0,0.0,70,0.00,,,0.00,Wunderground v.1.15,2013-09-28 02:00:00,
2013-09-27 22:10:00,66.9,56.4,30.05,ENE,68,0.0,0.0,69,0.00,,,0.00,Wunderground v.1.15,2013-09-28 02:10:00,
2013-09-27 22:15:00,66.7,56.6,30.05,ENE,68,0.0,0.0,70,0.00,,,0.00,Wunderground v.1.15,2013-09-28 02:15:00,
2013-09-27 22:20:00,66.5,56.0,30.05,ENE,68,0.0,0.0,69,0.00,,,0.00,Wunderground v.1.15,2013-09-28 02:20:00,
2013-09-27 22:25:00,66.4,56.3,30.05,ENE,68,0.0,0.0,70,0.00,,,0.00,Wunderground v.1.15,2013-09-28 02:25:00,
2013-09-27 22:35:00,65.9,57.7,30.05,ENE,68,0.0,0.0,75,0.00,,,0.00,Wunderground v.1.15,2013-09-28 02:35:00,
2013-09-27 22:40:00,65.5,56.6,30.04,ENE,68,0.0,0.0,73,0.00,,,0.00,Wunderground v.1.15,2013-09-28 02:40:00,
2013-09-27 22:45:00,65.3,57.2,30.05,ENE,68,0.0,0.0,75,0.00,,,0.00,Wunderground v.1.15,2013-09-28 02:45:00,
2013-09-27 22:50:00,65.1,57.0,30.04,ENE,68,0.0,0.0,75,0.00,,,0.00,Wunderground v.1.15,2013-09-28 02:50:00,
2013-09-27 22:55:00,65.0,58.0,30.05,ENE,68,0.0,0.0,78,0.00,,,0.00,Wunderground v.1.15,2013-09-28 02:55:00,
2013-09-27 23:00:00,64.9,57.5,30.05,ENE,68,0.0,0.0,77,0.00,,,0.00,Wunderground v.1.15,2013-09-28 03:00:00,
2013-09-27 23:10:00,64.3,57.6,30.05,ENE,68,0.0,0.0,79,0.00,,,0.00,Wunderground v.1.15,2013-09-28 03:10:00,
2013-09-27 23:15:00,63.8,57.5,30.05,ESE,110,0.0,1.0,80,0.00,,,0.00,Wunderground v.1.15,2013-09-28 03:15:00,
2013-09-27 23:25:00,62.8,57.6,30.05,ESE,110,0.0,0.0,83,0.00,,,0.00,Wunderground v.1.15,2013-09-28 03:25:00,
2013-09-27 23:30:00,62.6,57.7,30.05,ESE,110,0.0,0.0,84,0.00,,,0.00,Wunderground v.1.15,2013-09-28 03:30:00,
2013-09-27 23:35:00,62.3,57.1,30.05,ENE,65,0.0,0.0,83,0.00,,,0.00,Wunderground v.1.15,2013-09-28 03:35:00,
2013-09-27 23:40:00,62.4,57.5,30.04,ENE,65,0.0,0.0,84,0.00,,,0.00,Wunderground v.1.15,2013-09-28 03:40:00,
2013-09-27 23:50:00,62.5,57.6,30.04,ENE,65,0.0,1.0,84,0.00,,,0.00,Wunderground v.1.15,2013-09-28 03:50:00,
2013-09-27 23:55:00,62.5,57.3,30.04,ENE,65,0.0,1.0,83,0.00,,,0.00,Wunderground v.1.15,2013-09-28 03:55:00,